sensor_id;sensor_type;location;lat;lon;timestamp;pressure;altitude;pressure_sealevel;temperature;humidity
79586;BME280;69054;50.866;4.636;2024-01-11T00:00:25;102494.91;;;-8.17;100.00
79586;BME280;69054;50.866;4.636;2024-01-11T00:02:50;102495.44;;;-8.03;100.00
79586;BME280;69054;50.866;4.636;2024-01-11T00:05:16;102490.06;;;-7.99;100.00
79586;BME280;69054;50.866;4.636;2024-01-11T00:07:41;102504.13;;;-7.94;100.00
79586;BME280;69054;50.866;4.636;2024-01-11T00:10:07;102502.50;;;-8.02;100.00
79586;BME280;69054;50.866;4.636;2024-01-11T00:12:33;102496.31;;;-8.00;100.00
79586;BME280;69054;50.866;4.636;2024-01-11T00:14:58;102499.09;;;-8.07;100.00
79586;BME280;69054;50.866;4.636;2024-01-11T00:17:24;102495.56;;;-8.07;100.00
79586;BME280;69054;50.866;4.636;2024-01-11T00:19:50;102490.13;;;-8.01;100.00
79586;BME280;69054;50.866;4.636;2024-01-11T00:22:16;102497.19;;;-8.00;100.00
79586;BME280;69054;50.866;4.636;2024-01-11T00:24:41;102501.47;;;-7.94;100.00
79586;BME280;69054;50.866;4.636;2024-01-11T00:27:07;102496.47;;;-8.08;100.00
79586;BME280;69054;50.866;4.636;2024-01-11T00:29:32;102499.34;;;-8.19;100.00
79586;BME280;69054;50.866;4.636;2024-01-11T00:31:58;102498.47;;;-8.20;100.00
79586;BME280;69054;50.866;4.636;2024-01-11T00:34:23;102502.22;;;-8.30;100.00
79586;BME280;69054;50.866;4.636;2024-01-11T00:36:49;102504.28;;;-8.43;100.00
79586;BME280;69054;50.866;4.636;2024-01-11T00:39:15;102496.66;;;-8.57;100.00
79586;BME280;69054;50.866;4.636;2024-01-11T00:41:40;102510.09;;;-8.66;100.00
79586;BME280;69054;50.866;4.636;2024-01-11T00:44:06;102503.13;;;-8.71;100.00
79586;BME280;69054;50.866;4.636;2024-01-11T00:46:33;102506.28;;;-8.54;100.00
79586;BME280;69054;50.866;4.636;2024-01-11T00:48:58;102507.78;;;-8.42;100.00
79586;BME280;69054;50.866;4.636;2024-01-11T00:51:24;102508.66;;;-8.40;100.00
79586;BME280;69054;50.866;4.636;2024-01-11T00:53:49;102516.72;;;-8.45;100.00
79586;BME280;69054;50.866;4.636;2024-01-11T00:56:18;102517.75;;;-8.52;100.00
79586;BME280;69054;50.866;4.636;2024-01-11T00:58:44;102514.31;;;-8.57;100.00
79586;BME280;69054;50.866;4.636;2024-01-11T01:01:11;102510.03;;;-8.63;100.00
79586;BME280;69054;50.866;4.636;2024-01-11T01:03:36;102512.63;;;-8.60;100.00
79586;BME280;69054;50.866;4.636;2024-01-11T01:06:02;102517.78;;;-8.53;100.00
79586;BME280;69054;50.866;4.636;2024-01-11T01:08:28;102528.34;;;-8.50;100.00
79586;BME280;69054;50.866;4.636;2024-01-11T01:10:54;102525.66;;;-8.49;100.00
79586;BME280;69054;50.866;4.636;2024-01-11T01:13:20;102531.91;;;-8.53;100.00
79586;BME280;69054;50.866;4.636;2024-01-11T01:15:45;102538.09;;;-8.54;100.00
79586;BME280;69054;50.866;4.636;2024-01-11T01:18:11;102550.13;;;-8.38;100.00
79586;BME280;69054;50.866;4.636;2024-01-11T01:20:36;102552.47;;;-8.22;100.00
79586;BME280;69054;50.866;4.636;2024-01-11T01:23:02;102550.97;;;-8.34;100.00
79586;BME280;69054;50.866;4.636;2024-01-11T01:25:28;102547.44;;;-8.36;100.00
79586;BME280;69054;50.866;4.636;2024-01-11T01:27:53;102547.34;;;-8.31;100.00
79586;BME280;69054;50.866;4.636;2024-01-11T01:30:19;102544.50;;;-8.22;100.00
79586;BME280;69054;50.866;4.636;2024-01-11T01:32:45;102555.16;;;-8.24;100.00
79586;BME280;69054;50.866;4.636;2024-01-11T01:35:10;102543.88;;;-8.33;100.00
79586;BME280;69054;50.866;4.636;2024-01-11T01:37:36;102536.91;;;-8.39;100.00
79586;BME280;69054;50.866;4.636;2024-01-11T01:40:02;102539.75;;;-8.47;100.00
79586;BME280;69054;50.866;4.636;2024-01-11T01:42:27;102541.59;;;-8.50;100.00
79586;BME280;69054;50.866;4.636;2024-01-11T01:44:53;102551.47;;;-8.60;100.00
79586;BME280;69054;50.866;4.636;2024-01-11T01:47:18;102557.88;;;-8.72;100.00
79586;BME280;69054;50.866;4.636;2024-01-11T01:49:46;102558.84;;;-8.75;100.00
79586;BME280;69054;50.866;4.636;2024-01-11T01:52:14;102551.59;;;-8.66;100.00
79586;BME280;69054;50.866;4.636;2024-01-11T01:54:41;102566.53;;;-8.61;100.00
79586;BME280;69054;50.866;4.636;2024-01-11T01:57:08;102570.25;;;-8.71;100.00
79586;BME280;69054;50.866;4.636;2024-01-11T01:59:35;102575.69;;;-8.79;100.00
79586;BME280;69054;50.866;4.636;2024-01-11T02:02:03;102568.56;;;-8.77;100.00
79586;BME280;69054;50.866;4.636;2024-01-11T02:04:29;102574.81;;;-8.79;100.00
79586;BME280;69054;50.866;4.636;2024-01-11T02:06:58;102580.28;;;-8.88;100.00
79586;BME280;69054;50.866;4.636;2024-01-11T02:09:24;102570.78;;;-9.00;100.00
79586;BME280;69054;50.866;4.636;2024-01-11T02:11:51;102577.97;;;-9.10;100.00
79586;BME280;69054;50.866;4.636;2024-01-11T02:14:18;102574.56;;;-9.17;100.00
79586;BME280;69054;50.866;4.636;2024-01-11T02:16:45;102583.47;;;-9.21;100.00
79586;BME280;69054;50.866;4.636;2024-01-11T02:19:13;102587.84;;;-9.18;100.00
79586;BME280;69054;50.866;4.636;2024-01-11T02:21:42;102589.66;;;-9.20;100.00
79586;BME280;69054;50.866;4.636;2024-01-11T02:24:08;102572.06;;;-9.26;100.00
79586;BME280;69054;50.866;4.636;2024-01-11T02:26:34;102572.97;;;-9.27;100.00
79586;BME280;69054;50.866;4.636;2024-01-11T02:29:00;102577.44;;;-9.31;100.00
79586;BME280;69054;50.866;4.636;2024-01-11T02:31:25;102573.13;;;-9.36;100.00
79586;BME280;69054;50.866;4.636;2024-01-11T02:33:55;102576.56;;;-9.31;100.00
79586;BME280;69054;50.866;4.636;2024-01-11T02:36:21;102579.16;;;-9.28;100.00
79586;BME280;69054;50.866;4.636;2024-01-11T02:38:47;102575.63;;;-9.29;100.00
79586;BME280;69054;50.866;4.636;2024-01-11T02:41:16;102574.78;;;-9.29;100.00
79586;BME280;69054;50.866;4.636;2024-01-11T02:43:47;102569.63;;;-9.38;100.00
79586;BME280;69054;50.866;4.636;2024-01-11T02:46:14;102574.09;;;-9.43;100.00
79586;BME280;69054;50.866;4.636;2024-01-11T02:48:40;102571.56;;;-9.51;100.00
79586;BME280;69054;50.866;4.636;2024-01-11T02:51:06;102575.19;;;-9.58;100.00
79586;BME280;69054;50.866;4.636;2024-01-11T02:53:31;102575.31;;;-9.66;100.00
79586;BME280;69054;50.866;4.636;2024-01-11T02:56:00;102569.19;;;-9.70;100.00
79586;BME280;69054;50.866;4.636;2024-01-11T02:58:27;102576.13;;;-9.61;100.00
79586;BME280;69054;50.866;4.636;2024-01-11T03:00:53;102569.00;;;-9.57;100.00
79586;BME280;69054;50.866;4.636;2024-01-11T03:03:18;102572.50;;;-9.55;100.00
79586;BME280;69054;50.866;4.636;2024-01-11T03:05:44;102569.78;;;-9.51;100.00
79586;BME280;69054;50.866;4.636;2024-01-11T03:08:09;102568.81;;;-9.45;100.00
79586;BME280;69054;50.866;4.636;2024-01-11T03:10:37;102574.22;;;-9.51;100.00
79586;BME280;69054;50.866;4.636;2024-01-11T03:13:04;102583.16;;;-9.60;100.00
79586;BME280;69054;50.866;4.636;2024-01-11T03:15:30;102577.09;;;-9.67;100.00
79586;BME280;69054;50.866;4.636;2024-01-11T03:17:57;102568.25;;;-9.64;100.00
79586;BME280;69054;50.866;4.636;2024-01-11T03:20:23;102565.47;;;-9.55;100.00
79586;BME280;69054;50.866;4.636;2024-01-11T03:22:51;102567.03;;;-9.41;100.00
79586;BME280;69054;50.866;4.636;2024-01-11T03:25:19;102556.25;;;-9.31;100.00
79586;BME280;69054;50.866;4.636;2024-01-11T03:27:44;102553.63;;;-9.32;100.00
79586;BME280;69054;50.866;4.636;2024-01-11T03:30:11;102556.25;;;-9.31;100.00
79586;BME280;69054;50.866;4.636;2024-01-11T03:32:37;102549.91;;;-9.19;100.00
79586;BME280;69054;50.866;4.636;2024-01-11T03:35:07;102548.09;;;-9.17;100.00
79586;BME280;69054;50.866;4.636;2024-01-11T03:37:32;102545.56;;;-9.24;100.00
79586;BME280;69054;50.866;4.636;2024-01-11T03:39:59;102545.69;;;-9.32;100.00
79586;BME280;69054;50.866;4.636;2024-01-11T03:42:24;102552.06;;;-9.46;100.00
79586;BME280;69054;50.866;4.636;2024-01-11T03:44:50;102550.50;;;-9.59;100.00
79586;BME280;69054;50.866;4.636;2024-01-11T03:47:15;102550.59;;;-9.65;100.00
79586;BME280;69054;50.866;4.636;2024-01-11T03:49:40;102556.00;;;-9.71;100.00
79586;BME280;69054;50.866;4.636;2024-01-11T03:52:06;102561.31;;;-9.73;100.00
79586;BME280;69054;50.866;4.636;2024-01-11T03:54:31;102552.47;;;-9.72;100.00
79586;BME280;69054;50.866;4.636;2024-01-11T03:56:57;102561.16;;;-9.62;100.00
79586;BME280;69054;50.866;4.636;2024-01-11T03:59:22;102560.03;;;-9.47;100.00
79586;BME280;69054;50.866;4.636;2024-01-11T04:01:48;102557.41;;;-9.49;100.00
79586;BME280;69054;50.866;4.636;2024-01-11T04:04:13;102558.13;;;-9.37;100.00
79586;BME280;69054;50.866;4.636;2024-01-11T04:06:39;102552.81;;;-9.37;100.00
79586;BME280;69054;50.866;4.636;2024-01-11T04:09:04;102564.34;;;-9.38;100.00
79586;BME280;69054;50.866;4.636;2024-01-11T04:11:30;102550.88;;;-9.24;100.00
79586;BME280;69054;50.866;4.636;2024-01-11T04:13:58;102559.50;;;-9.13;100.00
79586;BME280;69054;50.866;4.636;2024-01-11T04:16:23;102556.81;;;-9.12;100.00
79586;BME280;69054;50.866;4.636;2024-01-11T04:18:49;102554.28;;;-9.18;100.00
79586;BME280;69054;50.866;4.636;2024-01-11T04:21:22;102564.22;;;-9.31;100.00
79586;BME280;69054;50.866;4.636;2024-01-11T04:23:48;102568.75;;;-9.40;100.00
79586;BME280;69054;50.866;4.636;2024-01-11T04:26:13;102563.72;;;-9.57;100.00
79586;BME280;69054;50.866;4.636;2024-01-11T04:28:39;102568.19;;;-9.61;100.00
79586;BME280;69054;50.866;4.636;2024-01-11T04:31:04;102568.19;;;-9.61;100.00
79586;BME280;69054;50.866;4.636;2024-01-11T04:33:29;102576.06;;;-9.56;100.00
79586;BME280;69054;50.866;4.636;2024-01-11T04:35:55;102580.41;;;-9.52;100.00
79586;BME280;69054;50.866;4.636;2024-01-11T04:38:20;102590.06;;;-9.50;100.00
79586;BME280;69054;50.866;4.636;2024-01-11T04:40:46;102595.09;;;-9.31;100.00
79586;BME280;69054;50.866;4.636;2024-01-11T04:43:11;102590.56;;;-9.23;100.00
79586;BME280;69054;50.866;4.636;2024-01-11T04:45:37;102601.00;;;-9.14;100.00
79586;BME280;69054;50.866;4.636;2024-01-11T04:48:02;102598.34;;;-9.14;100.00
79586;BME280;69054;50.866;4.636;2024-01-11T04:50:28;102588.56;;;-9.08;100.00
79586;BME280;69054;50.866;4.636;2024-01-11T04:52:53;102579.69;;;-9.06;100.00
79586;BME280;69054;50.866;4.636;2024-01-11T04:55:19;102591.75;;;-8.88;100.00
79586;BME280;69054;50.866;4.636;2024-01-11T04:57:45;102597.16;;;-8.94;100.00
79586;BME280;69054;50.866;4.636;2024-01-11T05:00:10;102596.00;;;-8.78;100.00
79586;BME280;69054;50.866;4.636;2024-01-11T05:02:36;102597.09;;;-8.91;100.00
79586;BME280;69054;50.866;4.636;2024-01-11T05:05:02;102593.63;;;-8.96;100.00
79586;BME280;69054;50.866;4.636;2024-01-11T05:07:27;102603.28;;;-8.90;100.00
79586;BME280;69054;50.866;4.636;2024-01-11T05:09:53;102607.81;;;-8.97;100.00
79586;BME280;69054;50.866;4.636;2024-01-11T05:12:18;102622.06;;;-9.06;100.00
79586;BME280;69054;50.866;4.636;2024-01-11T05:14:43;102615.91;;;-9.06;100.00
79586;BME280;69054;50.866;4.636;2024-01-11T05:17:09;102616.72;;;-9.03;100.00
79586;BME280;69054;50.866;4.636;2024-01-11T05:19:34;102611.28;;;-8.94;100.00
79586;BME280;69054;50.866;4.636;2024-01-11T05:22:00;102614.78;;;-8.90;100.00
79586;BME280;69054;50.866;4.636;2024-01-11T05:24:25;102620.00;;;-8.87;100.00
79586;BME280;69054;50.866;4.636;2024-01-11T05:26:51;102626.31;;;-8.94;100.00
79586;BME280;69054;50.866;4.636;2024-01-11T05:29:16;102624.66;;;-9.01;100.00
79586;BME280;69054;50.866;4.636;2024-01-11T05:31:42;102625.50;;;-9.01;100.00
79586;BME280;69054;50.866;4.636;2024-01-11T05:34:07;102636.19;;;-9.05;100.00
79586;BME280;69054;50.866;4.636;2024-01-11T05:36:34;102639.75;;;-9.06;100.00
79586;BME280;69054;50.866;4.636;2024-01-11T05:38:59;102641.59;;;-9.12;100.00
79586;BME280;69054;50.866;4.636;2024-01-11T05:41:25;102650.50;;;-9.16;100.00
79586;BME280;69054;50.866;4.636;2024-01-11T05:43:50;102651.22;;;-9.06;100.00
79586;BME280;69054;50.866;4.636;2024-01-11T05:46:15;102662.53;;;-8.96;100.00
79586;BME280;69054;50.866;4.636;2024-01-11T05:48:42;102660.66;;;-8.88;100.00
79586;BME280;69054;50.866;4.636;2024-01-11T05:51:08;102663.34;;;-8.89;100.00
79586;BME280;69054;50.866;4.636;2024-01-11T05:53:34;102664.34;;;-8.98;100.00
79586;BME280;69054;50.866;4.636;2024-01-11T05:56:01;102659.78;;;-8.88;100.00
79586;BME280;69054;50.866;4.636;2024-01-11T05:58:26;102663.53;;;-9.02;100.00
79586;BME280;69054;50.866;4.636;2024-01-11T06:00:52;102674.19;;;-9.05;100.00
79586;BME280;69054;50.866;4.636;2024-01-11T06:03:17;102681.09;;;-8.95;100.00
79586;BME280;69054;50.866;4.636;2024-01-11T06:05:42;102676.91;;;-9.10;100.00
79586;BME280;69054;50.866;4.636;2024-01-11T06:08:08;102691.28;;;-9.28;100.00
79586;BME280;69054;50.866;4.636;2024-01-11T06:10:33;102678.28;;;-9.46;100.00
79586;BME280;69054;50.866;4.636;2024-01-11T06:12:59;102681.06;;;-9.57;100.00
79586;BME280;69054;50.866;4.636;2024-01-11T06:15:24;102679.47;;;-9.69;100.00
79586;BME280;69054;50.866;4.636;2024-01-11T06:17:50;102679.41;;;-9.64;100.00
79586;BME280;69054;50.866;4.636;2024-01-11T06:20:15;102690.00;;;-9.64;100.00
79586;BME280;69054;50.866;4.636;2024-01-11T06:22:41;102677.53;;;-9.56;100.00
79586;BME280;69054;50.866;4.636;2024-01-11T06:25:07;102676.66;;;-9.56;100.00
79586;BME280;69054;50.866;4.636;2024-01-11T06:27:32;102682.06;;;-9.64;100.00
79586;BME280;69054;50.866;4.636;2024-01-11T06:29:58;102679.44;;;-9.66;100.00
79586;BME280;69054;50.866;4.636;2024-01-11T06:32:24;102690.97;;;-9.71;100.00
79586;BME280;69054;50.866;4.636;2024-01-11T06:34:49;102690.13;;;-9.73;100.00
79586;BME280;69054;50.866;4.636;2024-01-11T06:37:14;102691.09;;;-9.82;100.00
79586;BME280;69054;50.866;4.636;2024-01-11T06:39:40;102703.41;;;-9.81;100.00
79586;BME280;69054;50.866;4.636;2024-01-11T06:42:05;102693.75;;;-9.84;100.00
79586;BME280;69054;50.866;4.636;2024-01-11T06:44:31;102699.88;;;-9.80;100.00
79586;BME280;69054;50.866;4.636;2024-01-11T06:46:56;102700.78;;;-9.83;100.00
79586;BME280;69054;50.866;4.636;2024-01-11T06:49:22;102700.84;;;-9.89;100.00
79586;BME280;69054;50.866;4.636;2024-01-11T06:51:48;102698.19;;;-9.87;100.00
79586;BME280;69054;50.866;4.636;2024-01-11T06:54:13;102698.91;;;-9.71;100.00
79586;BME280;69054;50.866;4.636;2024-01-11T06:56:39;102695.41;;;-9.76;100.00
79586;BME280;69054;50.866;4.636;2024-01-11T06:59:04;102706.06;;;-9.83;100.00
79586;BME280;69054;50.866;4.636;2024-01-11T07:01:30;102697.31;;;-9.88;100.00
79586;BME280;69054;50.866;4.636;2024-01-11T07:03:55;102693.91;;;-9.96;100.00
79586;BME280;69054;50.866;4.636;2024-01-11T07:06:21;102682.50;;;-10.04;100.00
79586;BME280;69054;50.866;4.636;2024-01-11T07:08:47;102693.09;;;-10.06;100.00
79586;BME280;69054;50.866;4.636;2024-01-11T07:11:12;102695.84;;;-10.13;100.00
79586;BME280;69054;50.866;4.636;2024-01-11T07:13:38;102695.94;;;-10.24;100.00
79586;BME280;69054;50.866;4.636;2024-01-11T07:16:03;102710.94;;;-10.23;100.00
79586;BME280;69054;50.866;4.636;2024-01-11T07:18:29;102707.44;;;-10.27;100.00
79586;BME280;69054;50.866;4.636;2024-01-11T07:20:56;102708.31;;;-10.26;100.00
79586;BME280;69054;50.866;4.636;2024-01-11T07:23:23;102715.25;;;-10.18;100.00
79586;BME280;69054;50.866;4.636;2024-01-11T07:25:49;102718.75;;;-10.12;100.00
79586;BME280;69054;50.866;4.636;2024-01-11T07:28:15;102716.97;;;-10.12;100.00
79586;BME280;69054;50.866;4.636;2024-01-11T07:30:42;102714.31;;;-10.09;100.00
79586;BME280;69054;50.866;4.636;2024-01-11T07:33:07;102724.69;;;-9.92;100.00
79586;BME280;69054;50.866;4.636;2024-01-11T07:35:34;102710.72;;;-10.02;100.00
79586;BME280;69054;50.866;4.636;2024-01-11T07:37:59;102728.38;;;-10.07;100.00
79586;BME280;69054;50.866;4.636;2024-01-11T07:40:28;102727.53;;;-10.09;100.00
79586;BME280;69054;50.866;4.636;2024-01-11T07:42:54;102739.94;;;-10.14;100.00
79586;BME280;69054;50.866;4.636;2024-01-11T07:45:19;102744.22;;;-10.05;100.00
79586;BME280;69054;50.866;4.636;2024-01-11T07:47:45;102738.06;;;-10.06;100.00
79586;BME280;69054;50.866;4.636;2024-01-11T07:50:10;102742.28;;;-9.85;100.00
79586;BME280;69054;50.866;4.636;2024-01-11T07:52:36;102729.06;;;-9.88;100.00
79586;BME280;69054;50.866;4.636;2024-01-11T07:55:02;102717.63;;;-9.88;100.00
79586;BME280;69054;50.866;4.636;2024-01-11T07:57:35;102725.63;;;-9.94;100.00
79586;BME280;69054;50.866;4.636;2024-01-11T08:00:02;102733.47;;;-9.87;100.00
79586;BME280;69054;50.866;4.636;2024-01-11T08:02:29;102719.31;;;-9.83;100.00
79586;BME280;69054;50.866;4.636;2024-01-11T08:04:54;102719.94;;;-9.60;100.00
79586;BME280;69054;50.866;4.636;2024-01-11T08:07:20;102722.44;;;-9.50;100.00
79586;BME280;69054;50.866;4.636;2024-01-11T08:09:45;102723.44;;;-9.60;100.00
79586;BME280;69054;50.866;4.636;2024-01-11T08:12:11;102730.47;;;-9.56;100.00
79586;BME280;69054;50.866;4.636;2024-01-11T08:14:38;102732.84;;;-9.36;100.00
79586;BME280;69054;50.866;4.636;2024-01-11T08:17:04;102736.16;;;-9.17;100.00
79586;BME280;69054;50.866;4.636;2024-01-11T08:19:30;102746.59;;;-9.06;100.00
79586;BME280;69054;50.866;4.636;2024-01-11T08:21:59;102743.84;;;-8.98;100.00
79586;BME280;69054;50.866;4.636;2024-01-11T08:24:24;102724.50;;;-9.05;100.00
79586;BME280;69054;50.866;4.636;2024-01-11T08:26:50;102733.25;;;-8.98;100.00
79586;BME280;69054;50.866;4.636;2024-01-11T08:29:16;102744.72;;;-8.99;100.00
79586;BME280;69054;50.866;4.636;2024-01-11T08:31:44;102750.94;;;-9.00;100.00
79586;BME280;69054;50.866;4.636;2024-01-11T08:34:09;102750.00;;;-8.95;100.00
79586;BME280;69054;50.866;4.636;2024-01-11T08:36:36;102754.22;;;-8.84;100.00
79586;BME280;69054;50.866;4.636;2024-01-11T08:39:04;102741.56;;;-8.64;100.00
79586;BME280;69054;50.866;4.636;2024-01-11T08:41:34;102738.47;;;-8.39;100.00
79586;BME280;69054;50.866;4.636;2024-01-11T08:44:00;102734.94;;;-8.38;100.00
79586;BME280;69054;50.866;4.636;2024-01-11T08:46:26;102737.34;;;-8.24;100.00
79586;BME280;69054;50.866;4.636;2024-01-11T08:48:53;102756.69;;;-8.19;100.00
79586;BME280;69054;50.866;4.636;2024-01-11T08:51:21;102757.41;;;-8.09;100.00
79586;BME280;69054;50.866;4.636;2024-01-11T08:53:46;102763.97;;;-7.80;100.00
79586;BME280;69054;50.866;4.636;2024-01-11T08:56:12;102773.66;;;-7.78;100.00
79586;BME280;69054;50.866;4.636;2024-01-11T08:58:39;102768.38;;;-7.78;100.00
79586;BME280;69054;50.866;4.636;2024-01-11T09:01:05;102779.53;;;-7.60;100.00
79586;BME280;69054;50.866;4.636;2024-01-11T09:03:34;102772.34;;;-7.55;100.00
79586;BME280;69054;50.866;4.636;2024-01-11T09:05:59;102780.25;;;-7.52;100.00
79586;BME280;69054;50.866;4.636;2024-01-11T09:08:28;102784.53;;;-7.45;100.00
79586;BME280;69054;50.866;4.636;2024-01-11T09:10:55;102779.84;;;-7.32;100.00
79586;BME280;69054;50.866;4.636;2024-01-11T09:13:20;102777.91;;;-7.24;100.00
79586;BME280;69054;50.866;4.636;2024-01-11T09:15:46;102773.38;;;-7.19;100.00
79586;BME280;69054;50.866;4.636;2024-01-11T09:18:11;102769.69;;;-7.13;100.00
79586;BME280;69054;50.866;4.636;2024-01-11T09:20:37;102768.59;;;-7.03;100.00
79586;BME280;69054;50.866;4.636;2024-01-11T09:23:03;102762.25;;;-6.96;100.00
79586;BME280;69054;50.866;4.636;2024-01-11T09:25:32;102775.31;;;-6.86;100.00
79586;BME280;69054;50.866;4.636;2024-01-11T09:27:57;102781.44;;;-6.81;100.00
79586;BME280;69054;50.866;4.636;2024-01-11T09:30:23;102770.84;;;-6.83;100.00
79586;BME280;69054;50.866;4.636;2024-01-11T09:32:48;102776.91;;;-6.78;100.00
79586;BME280;69054;50.866;4.636;2024-01-11T09:35:14;102760.78;;;-6.70;100.00
79586;BME280;69054;50.866;4.636;2024-01-11T09:37:40;102771.25;;;-6.64;100.00
79586;BME280;69054;50.866;4.636;2024-01-11T09:40:06;102772.81;;;-6.53;100.00
79586;BME280;69054;50.866;4.636;2024-01-11T09:42:39;102762.16;;;-6.53;100.00
79586;BME280;69054;50.866;4.636;2024-01-11T09:45:07;102767.34;;;-6.47;100.00
79586;BME280;69054;50.866;4.636;2024-01-11T09:47:35;102765.31;;;-6.37;100.00
79586;BME280;69054;50.866;4.636;2024-01-11T09:50:03;102782.75;;;-6.26;100.00
79586;BME280;69054;50.866;4.636;2024-01-11T09:52:28;102779.97;;;-6.21;100.00
79586;BME280;69054;50.866;4.636;2024-01-11T09:55:00;102792.06;;;-6.08;100.00
79586;BME280;69054;50.866;4.636;2024-01-11T09:57:30;102789.28;;;-6.03;100.00
79586;BME280;69054;50.866;4.636;2024-01-11T09:59:59;102797.13;;;-5.97;100.00
79586;BME280;69054;50.866;4.636;2024-01-11T10:02:28;102793.25;;;-5.85;100.00
79586;BME280;69054;50.866;4.636;2024-01-11T10:04:54;102794.78;;;-5.76;100.00
79586;BME280;69054;50.866;4.636;2024-01-11T10:07:23;102798.16;;;-5.70;100.00
79586;BME280;69054;50.866;4.636;2024-01-11T10:09:50;102803.13;;;-5.57;100.00
79586;BME280;69054;50.866;4.636;2024-01-11T10:12:17;102798.56;;;-5.52;100.00
79586;BME280;69054;50.866;4.636;2024-01-11T10:14:46;102797.47;;;-5.43;100.00
79586;BME280;69054;50.866;4.636;2024-01-11T10:17:11;102807.09;;;-5.39;100.00
79586;BME280;69054;50.866;4.636;2024-01-11T10:19:37;102805.09;;;-5.31;100.00
79586;BME280;69054;50.866;4.636;2024-01-11T10:22:02;102807.72;;;-5.29;100.00
79586;BME280;69054;50.866;4.636;2024-01-11T10:24:28;102805.97;;;-5.30;100.00
79586;BME280;69054;50.866;4.636;2024-01-11T10:26:57;102812.91;;;-5.25;100.00
79586;BME280;69054;50.866;4.636;2024-01-11T10:29:33;102812.47;;;-5.09;100.00
79586;BME280;69054;50.866;4.636;2024-01-11T10:31:59;102804.66;;;-4.86;100.00
79586;BME280;69054;50.866;4.636;2024-01-11T10:34:24;102817.25;;;-4.61;100.00
79586;BME280;69054;50.866;4.636;2024-01-11T10:36:51;102810.81;;;-4.27;100.00
79586;BME280;69054;50.866;4.636;2024-01-11T10:39:17;102813.13;;;-3.63;100.00
79586;BME280;69054;50.866;4.636;2024-01-11T10:41:47;102822.69;;;-2.83;94.36
79586;BME280;69054;50.866;4.636;2024-01-11T10:44:20;102825.97;;;-1.66;91.45
79586;BME280;69054;50.866;4.636;2024-01-11T10:46:50;102823.59;;;-0.93;84.86
79586;BME280;69054;50.866;4.636;2024-01-11T10:49:22;102831.97;;;-0.05;78.96
79586;BME280;69054;50.866;4.636;2024-01-11T10:51:59;102825.97;;;1.11;74.05
79586;BME280;69054;50.866;4.636;2024-01-11T10:54:27;102826.31;;;2.00;70.20
79586;BME280;69054;50.866;4.636;2024-01-11T10:56:54;102826.91;;;2.36;66.67
79586;BME280;69054;50.866;4.636;2024-01-11T10:59:21;102831.22;;;2.83;65.44
79586;BME280;69054;50.866;4.636;2024-01-11T11:01:53;102833.38;;;3.07;64.42
79586;BME280;69054;50.866;4.636;2024-01-11T11:04:22;102835.97;;;2.79;63.48
79586;BME280;69054;50.866;4.636;2024-01-11T11:06:50;102825.81;;;2.83;62.81
79586;BME280;69054;50.866;4.636;2024-01-11T11:09:17;102824.50;;;2.76;63.68
79586;BME280;69054;50.866;4.636;2024-01-11T11:11:42;102816.97;;;2.81;62.41
79586;BME280;69054;50.866;4.636;2024-01-11T11:14:09;102827.00;;;3.08;62.18
79586;BME280;69054;50.866;4.636;2024-01-11T11:16:35;102830.03;;;3.59;61.96
79586;BME280;69054;50.866;4.636;2024-01-11T11:19:01;102827.72;;;3.53;60.82
79586;BME280;69054;50.866;4.636;2024-01-11T11:21:26;102829.84;;;3.89;60.02
79586;BME280;69054;50.866;4.636;2024-01-11T11:23:55;102825.59;;;3.85;57.99
79586;BME280;69054;50.866;4.636;2024-01-11T11:26:21;102819.13;;;4.28;57.42
79586;BME280;69054;50.866;4.636;2024-01-11T11:28:47;102819.34;;;3.85;58.70
79586;BME280;69054;50.866;4.636;2024-01-11T11:34:04;102818.16;;;4.29;57.04
79586;BME280;69054;50.866;4.636;2024-01-11T11:36:30;102820.59;;;4.72;55.72
79586;BME280;69054;50.866;4.636;2024-01-11T11:38:57;102825.47;;;4.54;54.61
79586;BME280;69054;50.866;4.636;2024-01-11T11:41:26;102830.47;;;4.86;54.61
79586;BME280;69054;50.866;4.636;2024-01-11T11:43:52;102827.00;;;5.60;52.99
79586;BME280;69054;50.866;4.636;2024-01-11T11:46:21;102831.34;;;5.49;52.20
79586;BME280;69054;50.866;4.636;2024-01-11T11:53:40;102830.03;;;5.55;51.35
79586;BME280;69054;50.866;4.636;2024-01-11T11:56:07;102825.91;;;5.12;52.68
79586;BME280;69054;50.866;4.636;2024-01-11T11:58:34;102830.38;;;4.88;52.27
79586;BME280;69054;50.866;4.636;2024-01-11T12:01:01;102827.41;;;4.52;53.61
79586;BME280;69054;50.866;4.636;2024-01-11T12:03:29;102828.63;;;4.87;54.51
79586;BME280;69054;50.866;4.636;2024-01-11T12:05:56;102829.16;;;4.79;53.47
79586;BME280;69054;50.866;4.636;2024-01-11T12:08:22;102828.50;;;5.27;52.87
79586;BME280;69054;50.866;4.636;2024-01-11T12:10:47;102833.13;;;5.75;51.07
79586;BME280;69054;50.866;4.636;2024-01-11T12:13:13;102838.50;;;5.63;52.26
79586;BME280;69054;50.866;4.636;2024-01-11T12:15:38;102840.19;;;5.77;51.02
79586;BME280;69054;50.866;4.636;2024-01-11T12:18:04;102841.50;;;6.09;49.38
79586;BME280;69054;50.866;4.636;2024-01-11T12:20:32;102838.81;;;6.20;49.19
79586;BME280;69054;50.866;4.636;2024-01-11T12:22:58;102824.94;;;6.36;48.00
79586;BME280;69054;50.866;4.636;2024-01-11T12:25:24;102827.09;;;6.19;48.81
79586;BME280;69054;50.866;4.636;2024-01-11T12:27:49;102824.13;;;5.74;49.38
79586;BME280;69054;50.866;4.636;2024-01-11T12:30:17;102817.84;;;5.37;49.99
79586;BME280;69054;50.866;4.636;2024-01-11T12:32:43;102821.13;;;5.29;51.05
79586;BME280;69054;50.866;4.636;2024-01-11T12:35:09;102822.59;;;5.46;49.93
79586;BME280;69054;50.866;4.636;2024-01-11T12:37:35;102817.19;;;6.07;49.28
79586;BME280;69054;50.866;4.636;2024-01-11T12:40:01;102815.16;;;5.61;49.00
79586;BME280;69054;50.866;4.636;2024-01-11T12:42:29;102820.47;;;5.12;50.15
79586;BME280;69054;50.866;4.636;2024-01-11T12:44:55;102822.88;;;4.91;51.26